sensor_id;sensor_type;location;lat;lon;timestamp;P1;durP1;ratioP1;P2;durP2;ratioP2
25079;SDS011;13071;48.868;9.996;2023-02-23T00:01:09;37.20;;;15.02;;
25079;SDS011;13071;48.868;9.996;2023-02-23T00:03:38;32.28;;;14.38;;
25079;SDS011;13071;48.868;9.996;2023-02-23T00:06:05;36.35;;;14.70;;
25079;SDS011;13071;48.868;9.996;2023-02-23T00:08:32;35.33;;;15.15;;
25079;SDS011;13071;48.868;9.996;2023-02-23T00:11:00;29.77;;;13.98;;
25079;SDS011;13071;48.868;9.996;2023-02-23T00:13:28;31.90;;;14.07;;
25079;SDS011;13071;48.868;9.996;2023-02-23T00:15:54;30.42;;;13.82;;
25079;SDS011;13071;48.868;9.996;2023-02-23T00:18:21;29.23;;;13.52;;
25079;SDS011;13071;48.868;9.996;2023-02-23T00:20:54;30.40;;;13.75;;
25079;SDS011;13071;48.868;9.996;2023-02-23T00:23:22;33.05;;;14.02;;
25079;SDS011;13071;48.868;9.996;2023-02-23T00:25:51;34.30;;;13.95;;
25079;SDS011;13071;48.868;9.996;2023-02-23T00:28:18;29.25;;;13.02;;
25079;SDS011;13071;48.868;9.996;2023-02-23T00:30:45;31.30;;;14.02;;
25079;SDS011;13071;48.868;9.996;2023-02-23T00:33:11;32.15;;;13.02;;
25079;SDS011;13071;48.868;9.996;2023-02-23T00:35:38;30.52;;;13.02;;
25079;SDS011;13071;48.868;9.996;2023-02-23T00:38:06;29.75;;;13.48;;
25079;SDS011;13071;48.868;9.996;2023-02-23T00:40:32;31.42;;;13.50;;
25079;SDS011;13071;48.868;9.996;2023-02-23T00:42:59;30.27;;;13.85;;
25079;SDS011;13071;48.868;9.996;2023-02-23T00:45:26;36.15;;;14.80;;
25079;SDS011;13071;48.868;9.996;2023-02-23T00:47:53;37.85;;;13.90;;
25079;SDS011;13071;48.868;9.996;2023-02-23T00:50:19;31.23;;;14.90;;
25079;SDS011;13071;48.868;9.996;2023-02-23T00:52:46;33.75;;;14.70;;
25079;SDS011;13071;48.868;9.996;2023-02-23T00:55:14;36.13;;;15.50;;
25079;SDS011;13071;48.868;9.996;2023-02-23T00:57:40;38.08;;;15.38;;
25079;SDS011;13071;48.868;9.996;2023-02-23T01:00:09;34.30;;;15.00;;
25079;SDS011;13071;48.868;9.996;2023-02-23T01:02:44;32.90;;;14.45;;
25079;SDS011;13071;48.868;9.996;2023-02-23T01:05:11;30.95;;;13.73;;
25079;SDS011;13071;48.868;9.996;2023-02-23T01:07:38;33.33;;;14.73;;
25079;SDS011;13071;48.868;9.996;2023-02-23T01:10:05;32.15;;;14.00;;
25079;SDS011;13071;48.868;9.996;2023-02-23T01:12:45;32.35;;;14.32;;
25079;SDS011;13071;48.868;9.996;2023-02-23T01:15:13;34.70;;;14.73;;
25079;SDS011;13071;48.868;9.996;2023-02-23T01:17:40;38.95;;;15.65;;
25079;SDS011;13071;48.868;9.996;2023-02-23T01:20:08;36.33;;;14.80;;
25079;SDS011;13071;48.868;9.996;2023-02-23T01:22:40;35.65;;;15.00;;
25079;SDS011;13071;48.868;9.996;2023-02-23T01:25:07;44.88;;;15.65;;
25079;SDS011;13071;48.868;9.996;2023-02-23T01:27:34;37.55;;;14.95;;
25079;SDS011;13071;48.868;9.996;2023-02-23T01:30:02;37.95;;;15.93;;
25079;SDS011;13071;48.868;9.996;2023-02-23T01:32:29;36.75;;;15.43;;
25079;SDS011;13071;48.868;9.996;2023-02-23T01:34:55;35.60;;;14.77;;
25079;SDS011;13071;48.868;9.996;2023-02-23T01:37:22;34.15;;;14.30;;
25079;SDS011;13071;48.868;9.996;2023-02-23T01:39:48;30.02;;;14.15;;
25079;SDS011;13071;48.868;9.996;2023-02-23T01:42:15;35.45;;;15.52;;
25079;SDS011;13071;48.868;9.996;2023-02-23T01:47:49;36.33;;;15.15;;
25079;SDS011;13071;48.868;9.996;2023-02-23T01:50:18;34.08;;;13.98;;
25079;SDS011;13071;48.868;9.996;2023-02-23T01:52:46;40.42;;;15.52;;
25079;SDS011;13071;48.868;9.996;2023-02-23T01:55:16;35.58;;;15.20;;
25079;SDS011;13071;48.868;9.996;2023-02-23T01:57:48;34.65;;;16.10;;
25079;SDS011;13071;48.868;9.996;2023-02-23T02:00:18;36.55;;;15.90;;
25079;SDS011;13071;48.868;9.996;2023-02-23T02:02:51;34.92;;;15.95;;
25079;SDS011;13071;48.868;9.996;2023-02-23T02:05:18;37.55;;;15.85;;
25079;SDS011;13071;48.868;9.996;2023-02-23T02:07:46;33.88;;;14.80;;
25079;SDS011;13071;48.868;9.996;2023-02-23T02:10:22;34.47;;;15.65;;
25079;SDS011;13071;48.868;9.996;2023-02-23T02:13:08;39.10;;;15.80;;
25079;SDS011;13071;48.868;9.996;2023-02-23T02:15:40;41.22;;;16.45;;
25079;SDS011;13071;48.868;9.996;2023-02-23T02:18:20;35.97;;;14.70;;
25079;SDS011;13071;48.868;9.996;2023-02-23T02:21:06;41.30;;;15.57;;
25079;SDS011;13071;48.868;9.996;2023-02-23T02:23:52;41.60;;;16.00;;
25079;SDS011;13071;48.868;9.996;2023-02-23T02:26:42;38.63;;;14.77;;
25079;SDS011;13071;48.868;9.996;2023-02-23T02:29:26;37.22;;;15.60;;
25079;SDS011;13071;48.868;9.996;2023-02-23T02:32:26;40.17;;;16.35;;
25079;SDS011;13071;48.868;9.996;2023-02-23T02:38:21;41.78;;;15.70;;
25079;SDS011;13071;48.868;9.996;2023-02-23T02:40:57;37.05;;;15.90;;
25079;SDS011;13071;48.868;9.996;2023-02-23T02:43:32;35.58;;;14.85;;
25079;SDS011;13071;48.868;9.996;2023-02-23T02:46:12;32.97;;;14.27;;
25079;SDS011;13071;48.868;9.996;2023-02-23T02:48:45;40.33;;;15.98;;
25079;SDS011;13071;48.868;9.996;2023-02-23T02:51:18;35.95;;;15.15;;
25079;SDS011;13071;48.868;9.996;2023-02-23T02:53:52;37.85;;;16.27;;
25079;SDS011;13071;48.868;9.996;2023-02-23T02:56:31;35.42;;;15.73;;
25079;SDS011;13071;48.868;9.996;2023-02-23T02:59:04;37.08;;;15.50;;
25079;SDS011;13071;48.868;9.996;2023-02-23T03:01:30;36.90;;;15.48;;
25079;SDS011;13071;48.868;9.996;2023-02-23T03:04:18;38.58;;;16.45;;
25079;SDS011;13071;48.868;9.996;2023-02-23T03:07:05;33.20;;;14.75;;
25079;SDS011;13071;48.868;9.996;2023-02-23T03:10:01;34.90;;;14.90;;
25079;SDS011;13071;48.868;9.996;2023-02-23T03:12:56;33.58;;;14.77;;
25079;SDS011;13071;48.868;9.996;2023-02-23T03:15:52;37.30;;;15.55;;
25079;SDS011;13071;48.868;9.996;2023-02-23T03:18:48;37.05;;;15.40;;
25079;SDS011;13071;48.868;9.996;2023-02-23T03:21:45;40.53;;;16.27;;
25079;SDS011;13071;48.868;9.996;2023-02-23T03:24:36;36.28;;;14.95;;
25079;SDS011;13071;48.868;9.996;2023-02-23T03:27:26;40.05;;;15.75;;
25079;SDS011;13071;48.868;9.996;2023-02-23T03:30:20;37.25;;;15.18;;
25079;SDS011;13071;48.868;9.996;2023-02-23T03:33:09;37.10;;;14.52;;
25079;SDS011;13071;48.868;9.996;2023-02-23T03:36:00;39.08;;;16.30;;
25079;SDS011;13071;48.868;9.996;2023-02-23T03:38:48;38.92;;;15.82;;
25079;SDS011;13071;48.868;9.996;2023-02-23T03:41:41;40.35;;;16.23;;
25079;SDS011;13071;48.868;9.996;2023-02-23T03:44:29;39.30;;;15.27;;
25079;SDS011;13071;48.868;9.996;2023-02-23T03:47:16;37.92;;;16.42;;
25079;SDS011;13071;48.868;9.996;2023-02-23T03:50:05;41.92;;;16.15;;
25079;SDS011;13071;48.868;9.996;2023-02-23T03:52:58;38.55;;;16.15;;
25079;SDS011;13071;48.868;9.996;2023-02-23T03:55:47;41.60;;;17.50;;
25079;SDS011;13071;48.868;9.996;2023-02-23T03:58:36;43.90;;;16.55;;
25079;SDS011;13071;48.868;9.996;2023-02-23T04:01:24;40.58;;;17.05;;
25079;SDS011;13071;48.868;9.996;2023-02-23T04:04:10;47.08;;;17.13;;
25079;SDS011;13071;48.868;9.996;2023-02-23T04:06:55;41.25;;;16.55;;
25079;SDS011;13071;48.868;9.996;2023-02-23T04:09:41;42.58;;;16.67;;
25079;SDS011;13071;48.868;9.996;2023-02-23T04:12:27;49.53;;;17.40;;
25079;SDS011;13071;48.868;9.996;2023-02-23T04:15:16;47.10;;;18.13;;
25079;SDS011;13071;48.868;9.996;2023-02-23T04:17:50;36.63;;;15.93;;
25079;SDS011;13071;48.868;9.996;2023-02-23T04:20:18;48.85;;;18.10;;
25079;SDS011;13071;48.868;9.996;2023-02-23T04:22:45;44.35;;;17.65;;
25079;SDS011;13071;48.868;9.996;2023-02-23T04:25:12;39.15;;;16.88;;
25079;SDS011;13071;48.868;9.996;2023-02-23T04:27:40;41.10;;;18.00;;
25079;SDS011;13071;48.868;9.996;2023-02-23T04:30:07;40.90;;;16.83;;
25079;SDS011;13071;48.868;9.996;2023-02-23T04:32:35;39.28;;;16.80;;
25079;SDS011;13071;48.868;9.996;2023-02-23T04:35:04;39.03;;;16.73;;
25079;SDS011;13071;48.868;9.996;2023-02-23T04:37:31;42.13;;;16.58;;
25079;SDS011;13071;48.868;9.996;2023-02-23T04:39:58;38.08;;;16.77;;
25079;SDS011;13071;48.868;9.996;2023-02-23T04:42:24;44.22;;;16.38;;
25079;SDS011;13071;48.868;9.996;2023-02-23T04:44:51;38.78;;;15.88;;
25079;SDS011;13071;48.868;9.996;2023-02-23T04:47:17;37.97;;;15.60;;
25079;SDS011;13071;48.868;9.996;2023-02-23T04:49:44;42.45;;;16.80;;
25079;SDS011;13071;48.868;9.996;2023-02-23T04:52:12;37.65;;;15.95;;
25079;SDS011;13071;48.868;9.996;2023-02-23T04:54:39;38.17;;;16.20;;
25079;SDS011;13071;48.868;9.996;2023-02-23T04:57:07;45.35;;;17.00;;
25079;SDS011;13071;48.868;9.996;2023-02-23T04:59:34;42.83;;;16.80;;
25079;SDS011;13071;48.868;9.996;2023-02-23T05:02:01;40.17;;;17.38;;
25079;SDS011;13071;48.868;9.996;2023-02-23T05:04:27;44.42;;;17.27;;
25079;SDS011;13071;48.868;9.996;2023-02-23T05:06:54;37.97;;;16.55;;
25079;SDS011;13071;48.868;9.996;2023-02-23T05:09:22;40.50;;;17.30;;
25079;SDS011;13071;48.868;9.996;2023-02-23T05:11:49;41.42;;;16.48;;
25079;SDS011;13071;48.868;9.996;2023-02-23T05:14:15;37.60;;;16.40;;
25079;SDS011;13071;48.868;9.996;2023-02-23T05:16:42;41.08;;;15.85;;
25079;SDS011;13071;48.868;9.996;2023-02-23T05:19:09;38.05;;;16.20;;
25079;SDS011;13071;48.868;9.996;2023-02-23T05:21:36;33.22;;;15.75;;
25079;SDS011;13071;48.868;9.996;2023-02-23T05:24:02;42.35;;;16.95;;
25079;SDS011;13071;48.868;9.996;2023-02-23T05:26:31;38.85;;;15.60;;
25079;SDS011;13071;48.868;9.996;2023-02-23T05:28:58;47.92;;;17.88;;
25079;SDS011;13071;48.868;9.996;2023-02-23T05:31:25;42.03;;;16.17;;
25079;SDS011;13071;48.868;9.996;2023-02-23T05:33:52;40.25;;;17.00;;
25079;SDS011;13071;48.868;9.996;2023-02-23T05:36:19;44.22;;;16.90;;
25079;SDS011;13071;48.868;9.996;2023-02-23T05:38:46;40.55;;;16.42;;
25079;SDS011;13071;48.868;9.996;2023-02-23T05:41:13;46.55;;;17.08;;
25079;SDS011;13071;48.868;9.996;2023-02-23T05:43:43;46.88;;;17.70;;
25079;SDS011;13071;48.868;9.996;2023-02-23T05:46:10;36.85;;;15.30;;
25079;SDS011;13071;48.868;9.996;2023-02-23T05:48:40;43.15;;;15.80;;
25079;SDS011;13071;48.868;9.996;2023-02-23T05:51:08;43.67;;;15.48;;
25079;SDS011;13071;48.868;9.996;2023-02-23T05:53:36;43.17;;;15.68;;
25079;SDS011;13071;48.868;9.996;2023-02-23T05:56:03;41.58;;;17.23;;
25079;SDS011;13071;48.868;9.996;2023-02-23T05:58:32;42.67;;;17.67;;
25079;SDS011;13071;48.868;9.996;2023-02-23T06:01:00;42.40;;;16.45;;
25079;SDS011;13071;48.868;9.996;2023-02-23T06:03:26;39.17;;;17.58;;
25079;SDS011;13071;48.868;9.996;2023-02-23T06:05:54;40.22;;;16.73;;
25079;SDS011;13071;48.868;9.996;2023-02-23T06:08:22;43.15;;;16.58;;
25079;SDS011;13071;48.868;9.996;2023-02-23T06:10:50;31.23;;;13.73;;
25079;SDS011;13071;48.868;9.996;2023-02-23T06:13:17;32.65;;;14.00;;
25079;SDS011;13071;48.868;9.996;2023-02-23T06:15:44;33.97;;;14.68;;
25079;SDS011;13071;48.868;9.996;2023-02-23T06:18:11;39.53;;;15.55;;
25079;SDS011;13071;48.868;9.996;2023-02-23T06:20:38;32.95;;;14.27;;
25079;SDS011;13071;48.868;9.996;2023-02-23T06:23:05;42.55;;;16.35;;
25079;SDS011;13071;48.868;9.996;2023-02-23T06:25:32;38.45;;;15.68;;
25079;SDS011;13071;48.868;9.996;2023-02-23T06:27:58;32.25;;;15.02;;
25079;SDS011;13071;48.868;9.996;2023-02-23T06:30:25;34.08;;;14.93;;
25079;SDS011;13071;48.868;9.996;2023-02-23T06:32:52;33.75;;;14.93;;
25079;SDS011;13071;48.868;9.996;2023-02-23T06:35:20;33.83;;;14.00;;
25079;SDS011;13071;48.868;9.996;2023-02-23T06:37:46;39.78;;;15.98;;
25079;SDS011;13071;48.868;9.996;2023-02-23T06:40:13;42.75;;;16.20;;
25079;SDS011;13071;48.868;9.996;2023-02-23T06:42:40;42.67;;;17.25;;
25079;SDS011;13071;48.868;9.996;2023-02-23T06:45:06;42.03;;;16.38;;
25079;SDS011;13071;48.868;9.996;2023-02-23T06:47:33;39.45;;;16.73;;
25079;SDS011;13071;48.868;9.996;2023-02-23T06:50:00;41.30;;;16.73;;
25079;SDS011;13071;48.868;9.996;2023-02-23T06:52:29;39.38;;;16.15;;
25079;SDS011;13071;48.868;9.996;2023-02-23T06:54:55;40.08;;;16.83;;
25079;SDS011;13071;48.868;9.996;2023-02-23T06:57:22;36.05;;;15.27;;
25079;SDS011;13071;48.868;9.996;2023-02-23T06:59:49;44.78;;;17.40;;
25079;SDS011;13071;48.868;9.996;2023-02-23T07:02:15;40.88;;;16.63;;
25079;SDS011;13071;48.868;9.996;2023-02-23T07:04:42;37.92;;;16.48;;
25079;SDS011;13071;48.868;9.996;2023-02-23T07:07:09;46.97;;;18.08;;
25079;SDS011;13071;48.868;9.996;2023-02-23T07:09:39;39.92;;;16.20;;
25079;SDS011;13071;48.868;9.996;2023-02-23T07:12:06;42.08;;;16.95;;
25079;SDS011;13071;48.868;9.996;2023-02-23T07:14:34;43.90;;;17.77;;
25079;SDS011;13071;48.868;9.996;2023-02-23T07:17:01;44.83;;;17.52;;
25079;SDS011;13071;48.868;9.996;2023-02-23T07:19:28;44.85;;;17.42;;
25079;SDS011;13071;48.868;9.996;2023-02-23T07:21:55;38.50;;;16.33;;
25079;SDS011;13071;48.868;9.996;2023-02-23T07:24:21;43.22;;;16.23;;
25079;SDS011;13071;48.868;9.996;2023-02-23T07:26:49;41.78;;;17.95;;
25079;SDS011;13071;48.868;9.996;2023-02-23T07:29:16;38.40;;;17.52;;
25079;SDS011;13071;48.868;9.996;2023-02-23T07:31:43;41.55;;;17.10;;
25079;SDS011;13071;48.868;9.996;2023-02-23T07:34:09;43.78;;;17.55;;
25079;SDS011;13071;48.868;9.996;2023-02-23T07:36:36;39.25;;;16.30;;
25079;SDS011;13071;48.868;9.996;2023-02-23T07:39:03;42.90;;;18.05;;
25079;SDS011;13071;48.868;9.996;2023-02-23T07:41:30;44.35;;;16.88;;
25079;SDS011;13071;48.868;9.996;2023-02-23T07:43:58;41.08;;;17.50;;
25079;SDS011;13071;48.868;9.996;2023-02-23T07:46:25;36.63;;;15.60;;
25079;SDS011;13071;48.868;9.996;2023-02-23T07:48:52;44.55;;;17.77;;
25079;SDS011;13071;48.868;9.996;2023-02-23T07:51:18;44.88;;;17.63;;
25079;SDS011;13071;48.868;9.996;2023-02-23T07:53:45;40.25;;;16.55;;
25079;SDS011;13071;48.868;9.996;2023-02-23T07:56:13;36.05;;;15.90;;
25079;SDS011;13071;48.868;9.996;2023-02-23T07:58:40;45.75;;;17.42;;
25079;SDS011;13071;48.868;9.996;2023-02-23T08:01:10;35.78;;;16.35;;
25079;SDS011;13071;48.868;9.996;2023-02-23T08:03:38;37.42;;;17.25;;
25079;SDS011;13071;48.868;9.996;2023-02-23T08:06:05;41.42;;;17.70;;
25079;SDS011;13071;48.868;9.996;2023-02-23T08:08:31;42.83;;;17.75;;
25079;SDS011;13071;48.868;9.996;2023-02-23T08:10:59;38.25;;;16.70;;
25079;SDS011;13071;48.868;9.996;2023-02-23T08:13:26;36.63;;;16.02;;
25079;SDS011;13071;48.868;9.996;2023-02-23T08:15:53;40.45;;;16.20;;
25079;SDS011;13071;48.868;9.996;2023-02-23T08:18:22;46.35;;;18.27;;
25079;SDS011;13071;48.868;9.996;2023-02-23T08:20:49;48.40;;;17.20;;
25079;SDS011;13071;48.868;9.996;2023-02-23T08:23:15;39.17;;;16.77;;
25079;SDS011;13071;48.868;9.996;2023-02-23T08:25:42;35.88;;;15.85;;
25079;SDS011;13071;48.868;9.996;2023-02-23T08:28:09;39.22;;;16.55;;
25079;SDS011;13071;48.868;9.996;2023-02-23T08:30:35;42.17;;;17.48;;
25079;SDS011;13071;48.868;9.996;2023-02-23T08:33:02;43.25;;;17.63;;
25079;SDS011;13071;48.868;9.996;2023-02-23T08:35:30;36.53;;;16.55;;
25079;SDS011;13071;48.868;9.996;2023-02-23T08:37:57;44.13;;;17.70;;
25079;SDS011;13071;48.868;9.996;2023-02-23T08:40:24;41.08;;;17.45;;
25079;SDS011;13071;48.868;9.996;2023-02-23T08:42:50;42.63;;;16.65;;
25079;SDS011;13071;48.868;9.996;2023-02-23T08:45:17;39.10;;;16.23;;
25079;SDS011;13071;48.868;9.996;2023-02-23T08:47:44;41.97;;;17.50;;
25079;SDS011;13071;48.868;9.996;2023-02-23T08:50:11;36.78;;;15.63;;
25079;SDS011;13071;48.868;9.996;2023-02-23T08:52:40;40.33;;;17.15;;
25079;SDS011;13071;48.868;9.996;2023-02-23T08:55:07;42.38;;;18.20;;
25079;SDS011;13071;48.868;9.996;2023-02-23T08:57:35;42.38;;;16.25;;
25079;SDS011;13071;48.868;9.996;2023-02-23T09:00:02;39.58;;;17.35;;
25079;SDS011;13071;48.868;9.996;2023-02-23T09:02:35;40.58;;;17.58;;
25079;SDS011;13071;48.868;9.996;2023-02-23T09:05:03;42.88;;;18.13;;
25079;SDS011;13071;48.868;9.996;2023-02-23T09:07:30;42.85;;;17.27;;
25079;SDS011;13071;48.868;9.996;2023-02-23T09:09:58;39.08;;;17.63;;
25079;SDS011;13071;48.868;9.996;2023-02-23T09:12:25;40.30;;;17.13;;
25079;SDS011;13071;48.868;9.996;2023-02-23T09:14:51;38.00;;;16.38;;
25079;SDS011;13071;48.868;9.996;2023-02-23T09:17:19;41.55;;;16.23;;
25079;SDS011;13071;48.868;9.996;2023-02-23T09:19:47;40.25;;;16.38;;
25079;SDS011;13071;48.868;9.996;2023-02-23T09:22:13;33.33;;;15.13;;
25079;SDS011;13071;48.868;9.996;2023-02-23T09:24:42;42.53;;;15.80;;
25079;SDS011;13071;48.868;9.996;2023-02-23T09:27:10;40.42;;;15.20;;
25079;SDS011;13071;48.868;9.996;2023-02-23T09:29:38;32.92;;;13.77;;
25079;SDS011;13071;48.868;9.996;2023-02-23T09:32:06;30.95;;;13.35;;
25079;SDS011;13071;48.868;9.996;2023-02-23T09:34:32;33.95;;;14.45;;
25079;SDS011;13071;48.868;9.996;2023-02-23T09:36:59;35.72;;;15.55;;
25079;SDS011;13071;48.868;9.996;2023-02-23T09:39:26;31.35;;;14.40;;
25079;SDS011;13071;48.868;9.996;2023-02-23T09:44:54;33.15;;;13.25;;
25079;SDS011;13071;48.868;9.996;2023-02-23T09:47:31;29.85;;;13.38;;
25079;SDS011;13071;48.868;9.996;2023-02-23T09:50:07;32.53;;;12.75;;
25079;SDS011;13071;48.868;9.996;2023-02-23T09:52:43;27.98;;;12.80;;
25079;SDS011;13071;48.868;9.996;2023-02-23T09:55:12;27.35;;;11.77;;
25079;SDS011;13071;48.868;9.996;2023-02-23T09:57:42;23.90;;;9.48;;
25079;SDS011;13071;48.868;9.996;2023-02-23T10:00:13;16.42;;;7.60;;
25079;SDS011;13071;48.868;9.996;2023-02-23T10:02:50;16.00;;;7.38;;
25079;SDS011;13071;48.868;9.996;2023-02-23T10:05:26;16.35;;;7.07;;
25079;SDS011;13071;48.868;9.996;2023-02-23T10:07:58;16.77;;;7.30;;
25079;SDS011;13071;48.868;9.996;2023-02-23T10:10:33;13.70;;;6.47;;
25079;SDS011;13071;48.868;9.996;2023-02-23T10:13:07;16.38;;;6.80;;
25079;SDS011;13071;48.868;9.996;2023-02-23T10:15:41;20.30;;;7.50;;
25079;SDS011;13071;48.868;9.996;2023-02-23T10:18:16;22.33;;;7.82;;
25079;SDS011;13071;48.868;9.996;2023-02-23T10:20:52;14.68;;;6.95;;
25079;SDS011;13071;48.868;9.996;2023-02-23T10:23:28;12.18;;;6.22;;
25079;SDS011;13071;48.868;9.996;2023-02-23T10:26:00;13.90;;;6.70;;
25079;SDS011;13071;48.868;9.996;2023-02-23T10:28:32;12.50;;;6.82;;
25079;SDS011;13071;48.868;9.996;2023-02-23T10:31:00;10.82;;;5.90;;
25079;SDS011;13071;48.868;9.996;2023-02-23T10:33:30;15.25;;;6.45;;
25079;SDS011;13071;48.868;9.996;2023-02-23T10:36:16;13.20;;;6.35;;
25079;SDS011;13071;48.868;9.996;2023-02-23T10:38:44;12.00;;;5.78;;
25079;SDS011;13071;48.868;9.996;2023-02-23T10:41:11;11.00;;;5.28;;
25079;SDS011;13071;48.868;9.996;2023-02-23T10:43:39;11.73;;;6.18;;
25079;SDS011;13071;48.868;9.996;2023-02-23T10:46:06;11.63;;;6.05;;
25079;SDS011;13071;48.868;9.996;2023-02-23T10:48:42;10.23;;;5.43;;
25079;SDS011;13071;48.868;9.996;2023-02-23T10:51:12;10.60;;;5.35;;
25079;SDS011;13071;48.868;9.996;2023-02-23T10:53:43;11.95;;;6.05;;
25079;SDS011;13071;48.868;9.996;2023-02-23T10:56:10;11.85;;;5.72;;
25079;SDS011;13071;48.868;9.996;2023-02-23T10:58:40;13.07;;;6.63;;
25079;SDS011;13071;48.868;9.996;2023-02-23T11:01:10;11.63;;;6.32;;
25079;SDS011;13071;48.868;9.996;2023-02-23T11:03:38;11.88;;;6.18;;
25079;SDS011;13071;48.868;9.996;2023-02-23T11:06:11;11.35;;;5.60;;
25079;SDS011;13071;48.868;9.996;2023-02-23T11:08:53;12.60;;;5.78;;
25079;SDS011;13071;48.868;9.996;2023-02-23T11:11:21;11.88;;;5.80;;
25079;SDS011;13071;48.868;9.996;2023-02-23T11:13:54;9.90;;;4.82;;
25079;SDS011;13071;48.868;9.996;2023-02-23T11:16:22;12.32;;;5.63;;
25079;SDS011;13071;48.868;9.996;2023-02-23T11:18:51;10.93;;;5.57;;
25079;SDS011;13071;48.868;9.996;2023-02-23T11:21:22;9.80;;;4.95;;
25079;SDS011;13071;48.868;9.996;2023-02-23T11:23:51;13.45;;;5.80;;
25079;SDS011;13071;48.868;9.996;2023-02-23T11:26:30;12.75;;;5.72;;
25079;SDS011;13071;48.868;9.996;2023-02-23T11:29:03;11.10;;;5.28;;
25079;SDS011;13071;48.868;9.996;2023-02-23T11:31:38;12.93;;;5.68;;
25079;SDS011;13071;48.868;9.996;2023-02-23T11:34:06;12.73;;;5.68;;
25079;SDS011;13071;48.868;9.996;2023-02-23T11:36:33;12.10;;;5.30;;
25079;SDS011;13071;48.868;9.996;2023-02-23T11:39:14;9.02;;;4.82;;
25079;SDS011;13071;48.868;9.996;2023-02-23T11:41:46;9.80;;;5.00;;
25079;SDS011;13071;48.868;9.996;2023-02-23T11:44:31;9.13;;;5.55;;
25079;SDS011;13071;48.868;9.996;2023-02-23T11:46:58;8.32;;;4.85;;
25079;SDS011;13071;48.868;9.996;2023-02-23T11:49:26;8.68;;;4.22;;
25079;SDS011;13071;48.868;9.996;2023-02-23T11:51:57;9.68;;;4.97;;
25079;SDS011;13071;48.868;9.996;2023-02-23T11:54:24;6.65;;;3.55;;
25079;SDS011;13071;48.868;9.996;2023-02-23T11:56:54;6.05;;;4.00;;
25079;SDS011;13071;48.868;9.996;2023-02-23T11:59:23;9.77;;;4.95;;
25079;SDS011;13071;48.868;9.996;2023-02-23T12:01:57;10.20;;;4.45;;
25079;SDS011;13071;48.868;9.996;2023-02-23T12:04:30;6.28;;;4.20;;
25079;SDS011;13071;48.868;9.996;2023-02-23T12:10:08;9.75;;;4.82;;
25079;SDS011;13071;48.868;9.996;2023-02-23T12:12:42;8.77;;;4.28;;
25079;SDS011;13071;48.868;9.996;2023-02-23T12:15:17;10.18;;;4.75;;
25079;SDS011;13071;48.868;9.996;2023-02-23T12:17:50;8.57;;;4.22;;
25079;SDS011;13071;48.868;9.996;2023-02-23T12:20:22;12.35;;;4.78;;
25079;SDS011;13071;48.868;9.996;2023-02-23T12:22:52;13.40;;;4.18;;
25079;SDS011;13071;48.868;9.996;2023-02-23T12:25:24;6.50;;;3.88;;
25079;SDS011;13071;48.868;9.996;2023-02-23T12:27:56;11.77;;;3.60;;
25079;SDS011;13071;48.868;9.996;2023-02-23T12:30:33;13.55;;;4.07;;
25079;SDS011;13071;48.868;9.996;2023-02-23T12:33:09;8.55;;;3.80;;
25079;SDS011;13071;48.868;9.996;2023-02-23T12:35:42;7.78;;;4.15;;
25079;SDS011;13071;48.868;9.996;2023-02-23T12:38:14;9.75;;;3.42;;
25079;SDS011;13071;48.868;9.996;2023-02-23T12:40:51;10.75;;;4.25;;
25079;SDS011;13071;48.868;9.996;2023-02-23T12:43:26;8.60;;;3.50;;
25079;SDS011;13071;48.868;9.996;2023-02-23T12:46:02;6.13;;;3.78;;
25079;SDS011;13071;48.868;9.996;2023-02-23T12:48:36;6.43;;;3.40;;
25079;SDS011;13071;48.868;9.996;2023-02-23T12:51:14;7.85;;;3.88;;
25079;SDS011;13071;48.868;9.996;2023-02-23T12:53:47;14.60;;;4.00;;
25079;SDS011;13071;48.868;9.996;2023-02-23T12:56:18;11.57;;;4.25;;
25079;SDS011;13071;48.868;9.996;2023-02-23T12:58:58;9.13;;;4.13;;
25079;SDS011;13071;48.868;9.996;2023-02-23T13:01:40;6.82;;;3.67;;
25079;SDS011;13071;48.868;9.996;2023-02-23T13:04:19;10.32;;;3.95;;
25079;SDS011;13071;48.868;9.996;2023-02-23T13:07:00;10.98;;;4.40;;
25079;SDS011;13071;48.868;9.996;2023-02-23T13:09:42;14.07;;;4.00;;
25079;SDS011;13071;48.868;9.996;2023-02-23T13:12:18;9.70;;;3.72;;
25079;SDS011;13071;48.868;9.996;2023-02-23T13:14:55;6.93;;;3.72;;
25079;SDS011;13071;48.868;9.996;2023-02-23T13:17:30;6.80;;;3.45;;
25079;SDS011;13071;48.868;9.996;2023-02-23T13:20:04;8.10;;;3.55;;
25079;SDS011;13071;48.868;9.996;2023-02-23T13:22:42;6.63;;;3.53;;
25079;SDS011;13071;48.868;9.996;2023-02-23T13:25:19;7.15;;;3.17;;
25079;SDS011;13071;48.868;9.996;2023-02-23T13:27:54;6.03;;;3.20;;
25079;SDS011;13071;48.868;9.996;2023-02-23T13:30:25;6.07;;;3.63;;
25079;SDS011;13071;48.868;9.996;2023-02-23T13:32:56;7.18;;;3.78;;
25079;SDS011;13071;48.868;9.996;2023-02-23T13:35:35;12.30;;;3.35;;
25079;SDS011;13071;48.868;9.996;2023-02-23T13:38:04;7.93;;;3.80;;
25079;SDS011;13071;48.868;9.996;2023-02-23T13:40:39;9.43;;;4.03;;
25079;SDS011;13071;48.868;9.996;2023-02-23T13:43:12;11.10;;;3.80;;
25079;SDS011;13071;48.868;9.996;2023-02-23T13:45:51;6.63;;;3.75;;
25079;SDS011;13071;48.868;9.996;2023-02-23T13:48:32;8.07;;;3.42;;
25079;SDS011;13071;48.868;9.996;2023-02-23T13:51:13;6.82;;;4.10;;
25079;SDS011;13071;48.868;9.996;2023-02-23T13:53:46;6.05;;;3.40;;
25079;SDS011;13071;48.868;9.996;2023-02-23T13:56:25;12.90;;;3.72;;
25079;SDS011;13071;48.868;9.996;2023-02-23T13:58:57;9.57;;;3.75;;
25079;SDS011;13071;48.868;9.996;2023-02-23T14:01:27;9.35;;;4.03;;
25079;SDS011;13071;48.868;9.996;2023-02-23T14:03:56;12.05;;;4.43;;
25079;SDS011;13071;48.868;9.996;2023-02-23T14:06:27;7.85;;;3.90;;
25079;SDS011;13071;48.868;9.996;2023-02-23T14:08:56;10.88;;;3.80;;
25079;SDS011;13071;48.868;9.996;2023-02-23T14:11:41;8.68;;;3.83;;
25079;SDS011;13071;48.868;9.996;2023-02-23T14:14:12;8.70;;;4.18;;
25079;SDS011;13071;48.868;9.996;2023-02-23T14:16:41;12.18;;;4.07;;
25079;SDS011;13071;48.868;9.996;2023-02-23T14:19:13;9.35;;;3.83;;
25079;SDS011;13071;48.868;9.996;2023-02-23T14:21:59;8.57;;;3.65;;
25079;SDS011;13071;48.868;9.996;2023-02-23T14:24:29;6.45;;;3.58;;
25079;SDS011;13071;48.868;9.996;2023-02-23T14:32:41;10.40;;;3.63;;
25079;SDS011;13071;48.868;9.996;2023-02-23T14:38:21;6.68;;;3.25;;
25079;SDS011;13071;48.868;9.996;2023-02-23T14:40:55;7.38;;;3.47;;
25079;SDS011;13071;48.868;9.996;2023-02-23T14:43:30;9.32;;;3.50;;
25079;SDS011;13071;48.868;9.996;2023-02-23T14:46:09;5.63;;;3.00;;
25079;SDS011;13071;48.868;9.996;2023-02-23T14:48:40;9.55;;;2.95;;
25079;SDS011;13071;48.868;9.996;2023-02-23T14:51:21;5.35;;;2.53;;
25079;SDS011;13071;48.868;9.996;2023-02-23T14:53:52;7.75;;;3.03;;
25079;SDS011;13071;48.868;9.996;2023-02-23T14:56:23;7.22;;;2.83;;
25079;SDS011;13071;48.868;9.996;2023-02-23T14:58:50;6.20;;;2.60;;
25079;SDS011;13071;48.868;9.996;2023-02-23T15:01:31;10.07;;;3.47;;
25079;SDS011;13071;48.868;9.996;2023-02-23T15:04:05;8.95;;;3.40;;
25079;SDS011;13071;48.868;9.996;2023-02-23T15:06:37;6.35;;;3.28;;
25079;SDS011;13071;48.868;9.996;2023-02-23T15:09:07;11.90;;;3.45;;
25079;SDS011;13071;48.868;9.996;2023-02-23T15:11:41;7.32;;;2.85;;
25079;SDS011;13071;48.868;9.996;2023-02-23T15:14:11;9.20;;;4.03;;
25079;SDS011;13071;48.868;9.996;2023-02-23T15:16:40;15.20;;;3.63;;